Time;durP1;ratioP1;P1;durP2;ratioP2;P2;SDS_P1;SDS_P2;PMS_P1;PMS_P2;Temp;Humidity;BMP_temperature;BMP_pressure;BME280_temperature;BME280_humidity;BME280_pressure;Samples;Min_cycle;Max_cycle;Signal;HPM_P1;HPM_P2
2021/04/30 00:00:38;;;;;;;26.00;10.88;;;7.50;99.90;;;;;;4949910;28;20050;-77
2021/04/30 00:03:04;;;;;;;37.15;10.98;;;7.50;99.90;;;;;;5015530;28;20418;-77
2021/04/30 00:05:31;;;;;;;21.10;10.07;;;7.40;99.90;;;;;;4948258;28;20076;-78
2021/04/30 00:07:57;;;;;;;34.50;11.98;;;7.40;99.90;;;;;;5003509;28;20047;-77
2021/04/30 00:10:24;;;;;;;22.85;10.60;;;7.50;99.90;;;;;;4949115;28;20032;-78
2021/04/30 00:12:50;;;;;;;26.65;9.75;;;7.50;99.90;;;;;;4952824;28;20392;-77
2021/04/30 00:15:17;;;;;;;17.50;8.98;;;7.50;99.90;;;;;;4957722;28;20057;-76
2021/04/30 00:17:43;;;;;;;23.92;8.70;;;7.50;99.90;;;;;;4952352;28;20024;-78
2021/04/30 00:20:11;;;;;;;29.42;9.80;;;7.50;99.90;;;;;;4982217;28;20031;-78
2021/04/30 00:22:38;;;;;;;29.73;8.48;;;7.60;99.90;;;;;;4962942;28;20064;-76
2021/04/30 00:25:06;;;;;;;35.17;9.98;;;7.60;99.90;;;;;;4974238;28;20432;-77
2021/04/30 00:27:31;;;;;;;19.52;9.10;;;7.60;99.90;;;;;;4951444;28;20039;-78
2021/04/30 00:29:58;;;;;;;29.38;9.90;;;7.60;99.90;;;;;;4981735;28;20031;-78
2021/04/30 00:32:24;;;;;;;22.45;9.10;;;7.60;99.90;;;;;;5018581;28;20441;-78
2021/04/30 00:34:50;;;;;;;31.67;10.15;;;7.70;99.90;;;;;;5008747;28;20028;-78
2021/04/30 00:37:16;;;;;;;26.98;9.82;;;7.70;99.90;;;;;;4968657;28;20548;-78
2021/04/30 00:39:41;;;;;;;21.60;8.07;;;7.70;99.90;;;;;;4994192;28;20024;-78
2021/04/30 00:42:10;;;;;;;25.75;9.77;;;7.70;99.90;;;;;;4973481;28;20047;-78
2021/04/30 00:44:36;;;;;;;15.95;8.30;;;7.70;99.90;;;;;;4955367;28;20070;-77
2021/04/30 00:47:02;;;;;;;22.20;8.90;;;7.70;99.90;;;;;;4948031;28;20043;-77
2021/04/30 00:49:27;;;;;;;30.55;9.82;;;7.70;99.90;;;;;;4948005;28;20019;-77
2021/04/30 00:51:53;;;;;;;24.60;9.55;;;7.70;99.90;;;;;;4951199;28;20122;-78
2021/04/30 00:54:21;;;;;;;22.30;8.93;;;7.70;99.90;;;;;;4953010;28;20128;-77
2021/04/30 00:56:47;;;;;;;17.42;8.25;;;7.70;99.90;;;;;;5012299;28;20032;-79
2021/04/30 00:59:13;;;;;;;26.83;8.40;;;7.70;99.90;;;;;;5019333;28;20058;-77
2021/04/30 01:01:39;;;;;;;24.20;8.23;;;7.70;99.90;;;;;;4956528;28;20031;-76
2021/04/30 01:04:05;;;;;;;25.92;8.50;;;7.70;99.90;;;;;;4949218;28;20565;-76
2021/04/30 01:06:32;;;;;;;22.63;9.70;;;7.90;99.90;;;;;;4954048;28;20434;-77
2021/04/30 01:09:03;;;;;;;22.58;8.38;;;7.90;99.90;;;;;;5003066;28;20027;-76
2021/04/30 01:11:28;;;;;;;24.10;10.02;;;7.90;99.90;;;;;;4956442;28;20059;-79
2021/04/30 01:13:54;;;;;;;24.25;8.57;;;7.90;99.90;;;;;;5016465;28;20028;-77
2021/04/30 01:16:20;;;;;;;21.98;8.35;;;7.90;99.90;;;;;;4955740;28;20027;-77
2021/04/30 01:18:47;;;;;;;20.48;9.02;;;8.00;99.90;;;;;;4956766;28;20023;-78
2021/04/30 01:21:13;;;;;;;21.52;8.52;;;8.00;99.90;;;;;;5020632;28;20193;-78
2021/04/30 01:23:53;;;;;;;27.58;9.63;;;8.00;99.90;;;;;;4952563;28;20039;-78
2021/04/30 01:26:19;;;;;;;26.77;9.13;;;8.00;99.90;;;;;;4949852;28;20592;-77
2021/04/30 01:28:47;;;;;;;28.67;9.55;;;7.90;99.90;;;;;;4949752;28;20036;-78
2021/04/30 01:31:13;;;;;;;30.33;10.18;;;7.90;99.90;;;;;;4967697;28;20023;-77
2021/04/30 01:33:39;;;;;;;18.77;9.57;;;7.90;99.90;;;;;;4964947;28;20031;-77
2021/04/30 01:36:05;;;;;;;31.50;11.20;;;7.90;99.90;;;;;;5034285;28;20131;-76
2021/04/30 01:38:32;;;;;;;17.85;9.30;;;7.90;99.90;;;;;;4958152;28;20016;-78
2021/04/30 01:40:59;;;;;;;18.10;9.25;;;7.90;99.90;;;;;;5009860;28;20035;-77
2021/04/30 01:43:25;;;;;;;20.23;8.73;;;7.90;99.90;;;;;;4941878;28;20448;-78
2021/04/30 01:45:59;;;;;;;18.85;7.70;;;7.80;99.90;;;;;;5011584;28;20450;-76
2021/04/30 01:48:34;;;;;;;18.85;8.10;;;7.80;99.90;;;;;;4967995;28;20024;-75
2021/04/30 01:51:03;;;;;;;19.80;7.75;;;7.90;99.90;;;;;;4967690;28;20051;-76
2021/04/30 01:53:33;;;;;;;19.77;8.43;;;7.90;99.90;;;;;;4944001;28;20066;-78
2021/04/30 01:56:00;;;;;;;20.80;8.60;;;7.90;99.90;;;;;;5020419;28;20119;-78
2021/04/30 01:58:26;;;;;;;26.60;7.93;;;8.00;99.90;;;;;;4969093;28;20019;-77
2021/04/30 02:00:54;;;;;;;26.15;7.63;;;8.00;99.90;;;;;;4955831;28;20036;-76
2021/04/30 02:03:20;;;;;;;20.42;8.18;;;8.00;99.90;;;;;;4948225;28;20042;-76
2021/04/30 02:05:46;;;;;;;27.67;7.07;;;8.00;99.90;;;;;;4993424;28;20112;-78
2021/04/30 02:08:14;;;;;;;15.88;6.93;;;8.10;99.90;;;;;;4972622;28;20029;-77
2021/04/30 02:10:48;;;;;;;22.90;7.20;;;8.10;99.90;;;;;;4969607;28;20051;-77
2021/04/30 02:13:16;;;;;;;24.50;7.20;;;8.00;99.90;;;;;;5022973;28;20035;-77
2021/04/30 02:15:45;;;;;;;23.48;8.70;;;8.00;99.90;;;;;;4969649;28;20074;-76
2021/04/30 02:18:11;;;;;;;17.33;7.18;;;7.90;99.90;;;;;;4985819;28;20027;-76
2021/04/30 02:20:43;;;;;;;14.13;6.10;;;7.90;99.90;;;;;;4974247;28;20042;-76
2021/04/30 02:23:09;;;;;;;17.15;6.60;;;7.80;99.90;;;;;;4967375;28;20114;-78
2021/04/30 02:25:34;;;;;;;21.25;7.20;;;7.90;99.90;;;;;;4959582;28;20087;-78
2021/04/30 02:28:02;;;;;;;17.25;6.40;;;8.00;99.90;;;;;;4992404;28;20043;-77
2021/04/30 02:30:32;;;;;;;21.17;6.47;;;8.10;99.90;;;;;;5029432;28;20213;-77
2021/04/30 02:32:58;;;;;;;22.17;6.13;;;8.20;99.90;;;;;;4964934;28;20580;-76
2021/04/30 02:35:27;;;;;;;15.55;6.88;;;8.20;99.90;;;;;;4973917;28;20021;-78
2021/04/30 02:37:54;;;;;;;17.33;5.32;;;8.20;99.90;;;;;;4962915;28;20027;-76
2021/04/30 02:40:24;;;;;;;21.13;6.72;;;8.20;99.90;;;;;;4955646;28;20490;-76
2021/04/30 02:42:50;;;;;;;14.40;5.90;;;8.20;99.90;;;;;;4951899;28;20040;-78
2021/04/30 02:45:17;;;;;;;22.83;6.90;;;8.20;99.90;;;;;;4953026;28;20324;-75
2021/04/30 02:47:48;;;;;;;19.58;6.20;;;8.10;99.90;;;;;;4956615;28;20027;-77
2021/04/30 02:50:16;;;;;;;17.90;6.57;;;8.20;99.90;;;;;;4952225;28;20031;-77
2021/04/30 02:52:42;;;;;;;18.85;6.55;;;8.10;99.90;;;;;;4981736;28;20116;-79
2021/04/30 02:55:09;;;;;;;14.60;7.13;;;8.10;99.90;;;;;;4964491;28;20012;-77
2021/04/30 02:57:34;;;;;;;21.88;7.93;;;8.20;99.90;;;;;;4956653;28;20034;-79
2021/04/30 03:00:01;;;;;;;21.52;7.65;;;8.20;99.90;;;;;;4950596;28;20043;-79
2021/04/30 03:02:26;;;;;;;20.02;6.95;;;8.10;99.90;;;;;;5019370;28;20023;-77
2021/04/30 03:04:52;;;;;;;13.00;6.90;;;8.00;99.90;;;;;;4953035;28;20023;-78
2021/04/30 03:07:19;;;;;;;20.63;7.78;;;8.00;99.90;;;;;;4952223;28;20431;-81
2021/04/30 03:09:46;;;;;;;17.58;6.43;;;8.10;99.90;;;;;;5010582;28;20407;-78
2021/04/30 03:12:12;;;;;;;14.93;7.00;;;8.30;99.90;;;;;;4938680;28;20051;-77
2021/04/30 03:14:39;;;;;;;22.85;6.85;;;8.30;99.90;;;;;;4947094;28;20212;-78
2021/04/30 03:17:04;;;;;;;19.23;7.45;;;8.20;99.90;;;;;;4951951;28;20027;-77
2021/04/30 03:19:30;;;;;;;18.50;6.88;;;8.10;99.90;;;;;;4952735;28;20027;-77
2021/04/30 03:21:55;;;;;;;17.30;7.15;;;8.00;99.90;;;;;;4948095;28;20035;-75
2021/04/30 03:24:21;;;;;;;19.40;6.68;;;8.10;99.90;;;;;;4952121;28;20326;-78
2021/04/30 03:26:48;;;;;;;15.90;7.63;;;8.20;99.90;;;;;;4954572;28;20024;-77
2021/04/30 03:29:14;;;;;;;17.05;7.68;;;8.20;99.90;;;;;;5022079;28;20042;-75
2021/04/30 03:31:39;;;;;;;15.45;6.78;;;8.30;99.90;;;;;;4952736;28;20043;-77
2021/04/30 03:34:06;;;;;;;22.15;8.25;;;8.30;99.90;;;;;;4966842;28;20031;-77
2021/04/30 03:36:32;;;;;;;17.90;7.20;;;8.30;99.90;;;;;;4952648;28;20035;-76
2021/04/30 03:39:00;;;;;;;19.58;8.13;;;8.40;99.90;;;;;;4952000;28;20027;-76
2021/04/30 03:41:26;;;;;;;22.90;7.60;;;8.40;99.90;;;;;;4946743;28;20047;-77
2021/04/30 03:43:52;;;;;;;15.15;7.03;;;8.40;99.90;;;;;;4954519;28;20023;-77
2021/04/30 03:46:18;;;;;;;26.00;6.85;;;8.40;99.90;;;;;;4966843;28;20024;-75
2021/04/30 03:48:45;;;;;;;15.27;6.75;;;8.50;99.90;;;;;;5023117;28;20034;-78
2021/04/30 03:51:11;;;;;;;23.33;7.20;;;8.30;99.90;;;;;;4960692;28;20106;-76
2021/04/30 03:53:37;;;;;;;14.45;6.97;;;8.30;99.90;;;;;;4961021;28;20043;-78
2021/04/30 03:56:03;;;;;;;19.88;7.38;;;8.40;99.90;;;;;;4958146;28;20023;-76
2021/04/30 03:58:29;;;;;;;19.83;8.68;;;8.40;99.90;;;;;;4982796;28;20029;-78
2021/04/30 04:00:54;;;;;;;28.20;10.25;;;8.50;99.90;;;;;;4947931;28;20043;-78
2021/04/30 04:03:21;;;;;;;14.50;8.98;;;8.40;99.90;;;;;;4959889;28;20034;-75
2021/04/30 04:05:47;;;;;;;26.33;11.10;;;8.40;99.90;;;;;;4958398;28;20035;-76
2021/04/30 04:08:12;;;;;;;25.35;10.88;;;8.50;99.90;;;;;;4957047;28;20035;-78
2021/04/30 04:10:38;;;;;;;17.98;10.35;;;8.50;99.90;;;;;;4952868;28;20150;-77
2021/04/30 04:13:25;;;;;;;18.42;11.13;;;8.50;99.90;;;;;;5017312;28;20046;-76
2021/04/30 04:15:51;;;;;;;23.20;11.80;;;8.40;99.90;;;;;;4947694;28;20026;-76
2021/04/30 04:18:19;;;;;;;24.08;10.93;;;8.40;99.90;;;;;;4947806;28;20096;-75
2021/04/30 04:20:45;;;;;;;20.10;11.45;;;8.40;99.90;;;;;;4954343;28;20027;-77
2021/04/30 04:23:12;;;;;;;19.80;10.57;;;8.50;99.90;;;;;;4946055;28;20026;-75
2021/04/30 04:25:43;;;;;;;18.38;10.45;;;8.50;99.90;;;;;;4951682;28;20035;-75
2021/04/30 04:28:09;;;;;;;19.90;11.23;;;8.50;99.90;;;;;;4985630;28;20030;-75
2021/04/30 04:30:35;;;;;;;17.80;10.93;;;8.50;99.90;;;;;;5023039;28;20020;-79
2021/04/30 04:33:05;;;;;;;20.98;11.20;;;8.40;99.90;;;;;;5009224;28;20035;-77
2021/04/30 04:35:31;;;;;;;17.45;10.52;;;8.40;99.90;;;;;;4970584;28;20027;-77
2021/04/30 04:37:57;;;;;;;19.30;11.00;;;8.50;99.90;;;;;;5041273;28;20015;-77
2021/04/30 04:40:25;;;;;;;22.15;11.00;;;8.50;99.90;;;;;;4967127;28;20049;-77
2021/04/30 04:42:51;;;;;;;21.98;11.27;;;8.50;99.90;;;;;;4966468;28;20016;-76
2021/04/30 04:45:17;;;;;;;24.08;10.95;;;8.40;99.90;;;;;;4949280;28;20436;-77
2021/04/30 04:47:43;;;;;;;28.42;11.35;;;8.30;99.90;;;;;;4954898;28;20031;-77
2021/04/30 04:50:11;;;;;;;20.23;9.10;;;8.20;99.90;;;;;;4951685;28;20055;-78
2021/04/30 04:52:38;;;;;;;31.83;10.48;;;8.30;99.90;;;;;;4946902;28;20078;-74
2021/04/30 04:55:05;;;;;;;26.77;10.27;;;8.30;99.90;;;;;;4948424;28;20084;-76
2021/04/30 04:57:31;;;;;;;23.25;9.95;;;8.20;99.90;;;;;;5007553;28;20024;-76
2021/04/30 04:59:56;;;;;;;24.67;9.48;;;8.20;99.90;;;;;;4943337;28;20043;-78
2021/04/30 05:02:22;;;;;;;21.00;8.82;;;8.20;99.90;;;;;;4946456;28;20032;-75
2021/04/30 05:04:48;;;;;;;14.43;8.68;;;8.40;99.90;;;;;;4943730;28;20028;-78
2021/04/30 05:07:13;;;;;;;24.63;9.85;;;8.40;99.90;;;;;;4938721;28;20058;-76
2021/04/30 05:09:40;;;;;;;22.38;10.10;;;8.40;99.90;;;;;;5006893;28;20033;-77
2021/04/30 05:12:07;;;;;;;19.58;9.80;;;8.40;99.90;;;;;;4942092;28;20027;-77
2021/04/30 05:14:33;;;;;;;19.15;9.07;;;8.50;99.90;;;;;;4950035;28;20023;-77
2021/04/30 05:16:58;;;;;;;26.83;9.75;;;8.50;99.90;;;;;;4948416;28;20035;-75
2021/04/30 05:19:24;;;;;;;21.02;9.55;;;8.40;99.90;;;;;;4950016;28;20011;-75
2021/04/30 05:21:52;;;;;;;23.17;10.15;;;8.60;99.90;;;;;;4954954;28;20652;-78
2021/04/30 05:24:17;;;;;;;22.23;10.02;;;8.60;99.90;;;;;;4952345;28;20033;-76
2021/04/30 05:26:43;;;;;;;21.08;9.73;;;8.70;99.90;;;;;;5033775;28;20108;-78
2021/04/30 05:29:11;;;;;;;22.00;9.70;;;8.80;99.90;;;;;;4983842;28;20053;-78
2021/04/30 05:31:37;;;;;;;14.35;10.13;;;8.90;99.90;;;;;;4949206;28;20034;-78
2021/04/30 05:34:03;;;;;;;35.58;10.50;;;8.90;99.90;;;;;;4951594;28;20027;-75
2021/04/30 05:36:29;;;;;;;25.88;9.38;;;8.90;99.90;;;;;;4946548;28;20020;-77
2021/04/30 05:38:55;;;;;;;20.65;9.15;;;9.00;99.90;;;;;;4949578;28;20034;-77
2021/04/30 05:41:22;;;;;;;25.08;10.00;;;9.10;99.90;;;;;;4952277;28;20075;-77
2021/04/30 05:43:49;;;;;;;25.70;9.45;;;9.10;99.90;;;;;;5041681;28;20028;-75
2021/04/30 05:46:14;;;;;;;23.83;10.13;;;9.10;99.90;;;;;;4966862;28;20035;-77
2021/04/30 05:48:40;;;;;;;26.02;10.68;;;9.10;99.90;;;;;;4958328;28;20091;-78
2021/04/30 05:51:06;;;;;;;28.90;11.77;;;9.10;99.90;;;;;;4959859;28;20023;-76
2021/04/30 05:53:33;;;;;;;19.77;11.52;;;9.10;99.90;;;;;;4996928;28;20067;-82
2021/04/30 05:56:00;;;;;;;28.50;11.75;;;9.10;99.90;;;;;;4964331;28;20096;-80
2021/04/30 05:58:27;;;;;;;30.55;12.93;;;9.00;99.90;;;;;;4965658;28;20019;-79
2021/04/30 06:00:54;;;;;;;37.72;14.38;;;8.80;99.90;;;;;;4955390;28;20415;-76
2021/04/30 06:03:22;;;;;;;21.80;13.40;;;8.80;99.90;;;;;;4959133;28;20028;-78
2021/04/30 06:05:48;;;;;;;23.30;13.75;;;8.70;99.90;;;;;;4964387;28;20042;-79
2021/04/30 06:08:14;;;;;;;33.97;12.77;;;8.60;99.90;;;;;;5012703;28;20110;-78
2021/04/30 06:10:39;;;;;;;25.75;12.45;;;8.50;99.90;;;;;;4955310;28;20039;-78
2021/04/30 06:13:06;;;;;;;38.78;17.10;;;8.40;99.90;;;;;;5026941;28;20026;-79
2021/04/30 06:15:33;;;;;;;28.73;14.57;;;8.60;99.90;;;;;;4973865;28;20026;-82
2021/04/30 06:18:01;;;;;;;27.92;15.18;;;8.60;99.90;;;;;;5026599;28;20027;-79
2021/04/30 06:20:27;;;;;;;23.95;17.48;;;8.80;99.90;;;;;;5044519;28;20067;-80
2021/04/30 06:22:54;;;;;;;24.42;15.30;;;8.80;99.90;;;;;;4988036;28;20042;-79
2021/04/30 06:25:22;;;;;;;26.25;16.75;;;8.90;99.90;;;;;;4976991;28;20078;-81
2021/04/30 06:27:47;;;;;;;30.33;17.92;;;9.00;99.90;;;;;;4971403;28;20050;-79
2021/04/30 06:30:13;;;;;;;33.25;17.20;;;9.10;99.90;;;;;;5023996;28;20023;-78
2021/04/30 06:32:43;;;;;;;25.50;17.55;;;9.20;99.90;;;;;;4960125;28;20518;-78
2021/04/30 06:35:10;;;;;;;26.33;16.10;;;9.20;99.90;;;;;;5026164;28;20024;-78
2021/04/30 06:37:37;;;;;;;32.20;17.10;;;9.00;99.90;;;;;;5031361;28;20084;-79
2021/04/30 06:40:08;;;;;;;40.95;18.80;;;9.10;99.90;;;;;;4957854;28;20023;-79
2021/04/30 06:42:34;;;;;;;23.88;18.23;;;9.10;99.90;;;;;;5013606;28;20115;-78
2021/04/30 06:44:59;;;;;;;41.90;19.27;;;9.20;99.90;;;;;;5017719;28;20011;-79
2021/04/30 06:47:25;;;;;;;46.47;20.20;;;9.20;99.90;;;;;;5033565;28;20023;-77
2021/04/30 06:49:51;;;;;;;35.00;18.00;;;9.00;99.90;;;;;;5027573;28;20079;-78
2021/04/30 06:52:17;;;;;;;35.72;17.50;;;8.90;99.90;;;;;;4937092;28;20034;-78
2021/04/30 06:54:43;;;;;;;32.47;17.17;;;8.70;99.90;;;;;;5037453;28;20025;-79
2021/04/30 06:57:09;;;;;;;21.70;17.10;;;8.80;99.90;;;;;;5020404;28;20019;-77
2021/04/30 06:59:34;;;;;;;27.33;16.58;;;8.80;99.90;;;;;;4949254;28;20028;-78
2021/04/30 07:02:03;;;;;;;26.52;16.80;;;8.90;99.90;;;;;;4956230;28;20027;-78
2021/04/30 07:04:30;;;;;;;30.60;17.65;;;9.00;99.90;;;;;;4952284;28;20111;-78
2021/04/30 07:06:56;;;;;;;29.65;17.85;;;9.10;99.90;;;;;;4953879;28;20031;-77
2021/04/30 07:09:22;;;;;;;28.42;16.05;;;9.10;99.90;;;;;;4953876;28;20032;-78
2021/04/30 07:11:49;;;;;;;24.42;15.63;;;9.10;99.90;;;;;;4952674;28;20102;-78
2021/04/30 07:14:14;;;;;;;38.28;16.92;;;8.90;99.90;;;;;;4955899;28;20028;-80
2021/04/30 07:16:40;;;;;;;33.97;16.60;;;8.70;99.90;;;;;;5023939;28;20098;-79
2021/04/30 07:19:06;;;;;;;33.95;17.52;;;8.80;99.90;;;;;;5031058;28;20085;-78
2021/04/30 07:21:31;;;;;;;37.80;16.42;;;8.90;99.90;;;;;;5026051;28;20493;-79
2021/04/30 07:23:57;;;;;;;42.97;17.88;;;8.70;99.90;;;;;;4956308;28;20035;-79
2021/04/30 07:26:23;;;;;;;36.15;15.93;;;8.70;99.90;;;;;;5026725;28;20105;-78
2021/04/30 07:28:49;;;;;;;28.98;16.67;;;8.60;99.90;;;;;;4990121;28;20711;-79
2021/04/30 07:31:14;;;;;;;26.73;16.25;;;8.60;99.90;;;;;;4961322;28;20082;-78
2021/04/30 07:33:46;;;;;;;35.85;17.35;;;8.70;99.90;;;;;;4945809;28;20023;-77
2021/04/30 07:36:13;;;;;;;35.57;18.33;;;8.70;99.90;;;;;;4944770;28;20088;-78
2021/04/30 07:38:38;;;;;;;30.13;18.90;;;8.70;99.90;;;;;;4948606;28;20030;-79
2021/04/30 07:41:05;;;;;;;38.38;19.00;;;8.60;99.90;;;;;;5020878;28;20019;-77
2021/04/30 07:43:31;;;;;;;39.67;20.63;;;8.60;99.90;;;;;;5017930;28;20032;-78
2021/04/30 07:45:59;;;;;;;38.95;21.35;;;8.50;99.90;;;;;;5013019;28;20038;-77
2021/04/30 07:48:25;;;;;;;36.83;20.30;;;8.50;99.90;;;;;;4959930;28;20027;-77
2021/04/30 07:50:51;;;;;;;38.50;20.35;;;8.40;99.90;;;;;;4960939;28;20024;-76
2021/04/30 07:53:16;;;;;;;39.72;21.52;;;8.40;99.90;;;;;;4947616;28;20028;-79
2021/04/30 07:55:45;;;;;;;39.75;21.05;;;8.40;99.90;;;;;;5033830;28;20125;-78
2021/04/30 07:58:10;;;;;;;42.28;21.42;;;8.40;99.90;;;;;;4948829;28;20211;-78
2021/04/30 08:00:36;;;;;;;52.10;22.27;;;8.40;99.90;;;;;;5020026;28;20118;-78
2021/04/30 08:03:02;;;;;;;38.40;23.30;;;8.50;99.90;;;;;;4953263;28;20023;-77
2021/04/30 08:05:27;;;;;;;50.95;23.08;;;8.60;99.90;;;;;;4993865;28;20024;-78
2021/04/30 08:07:53;;;;;;;44.80;24.08;;;8.60;99.90;;;;;;4996451;28;20036;-77
2021/04/30 08:10:19;;;;;;;44.13;24.15;;;8.50;99.90;;;;;;4954552;28;20023;-78
2021/04/30 08:12:47;;;;;;;45.15;24.65;;;8.50;99.90;;;;;;4944590;28;20039;-78
2021/04/30 08:15:14;;;;;;;45.92;24.85;;;8.50;99.90;;;;;;4964208;28;20023;-77
2021/04/30 08:17:42;;;;;;;58.30;26.95;;;8.50;99.90;;;;;;4955846;28;20141;-78
2021/04/30 08:20:10;;;;;;;64.25;26.83;;;8.50;99.90;;;;;;5016949;28;20007;-77
2021/04/30 08:22:36;;;;;;;52.90;26.10;;;8.40;99.90;;;;;;4955256;28;20462;-80
2021/04/30 08:25:02;;;;;;;52.88;27.35;;;8.40;99.90;;;;;;4950275;28;20034;-76
2021/04/30 08:27:28;;;;;;;54.55;28.08;;;8.50;99.90;;;;;;4955786;28;20383;-78
2021/04/30 08:29:53;;;;;;;45.33;26.23;;;8.70;99.90;;;;;;4976334;28;20027;-78
2021/04/30 08:32:20;;;;;;;52.08;27.95;;;8.70;99.90;;;;;;4948494;28;20023;-78
2021/04/30 08:34:46;;;;;;;49.47;27.23;;;8.80;99.90;;;;;;4954457;28;20028;-77
2021/04/30 08:37:12;;;;;;;53.42;29.42;;;8.70;99.90;;;;;;4960773;28;20453;-78
2021/04/30 08:39:40;;;;;;;54.40;29.05;;;8.70;99.90;;;;;;4952743;28;20104;-77
2021/04/30 08:42:09;;;;;;;57.60;29.42;;;8.70;99.90;;;;;;4947405;28;20043;-77
2021/04/30 08:44:36;;;;;;;44.55;27.65;;;8.60;99.90;;;;;;4953395;28;20028;-77
2021/04/30 08:47:03;;;;;;;49.47;27.50;;;8.50;99.90;;;;;;4953891;28;20024;-76
2021/04/30 08:49:28;;;;;;;48.88;25.55;;;8.60;99.90;;;;;;4966307;28;20011;-76
2021/04/30 08:51:55;;;;;;;54.92;30.00;;;8.70;99.90;;;;;;4972164;28;20027;-77
2021/04/30 08:54:21;;;;;;;51.22;29.33;;;8.60;99.90;;;;;;5024602;28;20027;-77
2021/04/30 08:56:51;;;;;;;54.28;31.40;;;8.60;99.90;;;;;;4965970;28;20031;-75
2021/04/30 08:59:22;;;;;;;55.22;30.45;;;8.60;99.90;;;;;;4960470;28;20326;-75
2021/04/30 09:01:48;;;;;;;50.30;30.23;;;8.60;99.90;;;;;;5017385;28;20035;-75
2021/04/30 09:04:13;;;;;;;64.47;30.13;;;8.60;99.90;;;;;;4954241;28;20045;-75
2021/04/30 09:06:41;;;;;;;58.05;29.65;;;8.70;99.90;;;;;;4957770;28;20027;-75
2021/04/30 09:09:11;;;;;;;53.17;29.70;;;8.70;99.90;;;;;;4960954;28;20527;-74
2021/04/30 09:11:45;;;;;;;47.38;29.42;;;8.70;99.90;;;;;;4957155;28;20028;-75
2021/04/30 09:14:32;;;;;;;57.00;32.28;;;8.90;99.90;;;;;;4955583;28;20027;-75
2021/04/30 09:17:09;;;;;;;49.63;29.83;;;9.10;99.90;;;;;;4963355;28;20030;-77
2021/04/30 09:19:50;;;;;;;53.97;31.90;;;9.30;99.90;;;;;;4976854;28;20030;-78
2021/04/30 09:22:21;;;;;;;48.63;30.83;;;9.30;99.90;;;;;;4940580;28;20028;-77
2021/04/30 09:24:59;;;;;;;54.00;29.83;;;9.30;99.90;;;;;;5021205;28;20376;-77
2021/04/30 09:27:33;;;;;;;52.00;30.45;;;9.30;99.90;;;;;;4955804;28;20390;-77
2021/04/30 09:30:25;;;;;;;53.33;29.42;;;9.30;99.90;;;;;;4975425;28;20027;-77
2021/04/30 09:33:20;;;;;;;56.80;31.50;;;9.00;99.90;;;;;;4998960;28;20020;-77
2021/04/30 09:35:56;;;;;;;54.75;31.38;;;9.00;99.90;;;;;;4965086;28;20062;-77
2021/04/30 09:38:29;;;;;;;53.13;32.08;;;9.10;99.90;;;;;;4959964;28;20507;-75
2021/04/30 09:41:00;;;;;;;57.33;31.88;;;9.00;99.90;;;;;;4953170;28;20031;-76
2021/04/30 09:43:27;;;;;;;51.97;32.55;;;9.10;99.90;;;;;;4955369;28;20023;-76
2021/04/30 09:45:52;;;;;;;61.95;32.88;;;9.30;99.90;;;;;;4954035;28;20023;-76
2021/04/30 09:48:18;;;;;;;54.75;32.47;;;9.40;99.90;;;;;;5021308;28;20024;-74
2021/04/30 09:50:45;;;;;;;47.55;27.50;;;9.60;99.90;;;;;;4963949;28;20015;-76
2021/04/30 09:53:13;;;;;;;53.22;30.95;;;9.40;99.90;;;;;;5037628;28;20021;-77
2021/04/30 09:55:50;;;;;;;51.78;32.20;;;9.40;99.90;;;;;;4981084;28;20109;-75
2021/04/30 09:58:21;;;;;;;57.00;35.22;;;9.40;99.90;;;;;;4970875;28;20031;-76
2021/04/30 10:00:49;;;;;;;62.50;36.63;;;9.60;99.90;;;;;;4967520;28;20099;-77
2021/04/30 10:03:24;;;;;;;55.97;33.83;;;9.60;99.90;;;;;;4965338;28;20027;-77
2021/04/30 10:06:13;;;;;;;45.67;30.77;;;9.90;99.90;;;;;;4972343;28;20094;-78
2021/04/30 10:08:43;;;;;;;43.22;30.02;;;10.00;99.90;;;;;;5027331;28;20079;-76
2021/04/30 10:11:31;;;;;;;47.53;27.42;;;10.40;99.90;;;;;;4962503;28;20035;-76
2021/04/30 10:13:56;;;;;;;47.25;28.30;;;10.30;99.90;;;;;;4945285;28;20426;-76
2021/04/30 10:16:22;;;;;;;42.47;27.77;;;10.00;99.90;;;;;;4954948;28;20365;-75
2021/04/30 10:18:49;;;;;;;38.80;26.40;;;10.00;99.90;;;;;;4949555;28;20020;-77
2021/04/30 10:21:17;;;;;;;38.05;25.98;;;9.80;99.90;;;;;;4965015;28;20061;-78
2021/04/30 10:23:47;;;;;;;39.00;26.08;;;10.00;99.90;;;;;;4967124;28;20513;-78
2021/04/30 10:26:15;;;;;;;38.33;27.55;;;10.10;99.90;;;;;;4955533;28;20095;-78
2021/04/30 10:28:46;;;;;;;37.22;25.80;;;10.20;99.90;;;;;;5011682;28;19997;-78
2021/04/30 10:31:16;;;;;;;38.88;26.15;;;10.30;99.90;;;;;;4973519;28;20095;-76
2021/04/30 10:34:12;;;;;;;40.05;26.58;;;10.30;99.90;;;;;;4973393;28;20027;-76
2021/04/30 10:36:43;;;;;;;45.90;28.25;;;10.00;99.90;;;;;;5012789;28;20138;-79
2021/04/30 10:39:28;;;;;;;43.13;30.00;;;9.90;99.90;;;;;;5020397;28;20946;-78
2021/04/30 10:41:55;;;;;;;47.33;29.38;;;9.80;99.90;;;;;;4954171;28;20499;-78
2021/04/30 10:44:31;;;;;;;35.90;24.95;;;9.70;99.90;;;;;;4956025;28;20024;-79
2021/04/30 10:47:09;;;;;;;32.55;18.92;;;9.70;99.90;;;;;;4954166;28;20102;-78
2021/04/30 10:49:36;;;;;;;26.85;17.13;;;9.60;99.90;;;;;;4953806;28;20027;-77
2021/04/30 10:52:05;;;;;;;21.83;14.65;;;9.40;99.90;;;;;;4957644;28;20028;-77
2021/04/30 10:54:38;;;;;;;31.77;15.00;;;9.20;99.90;;;;;;4950625;28;20077;-77
2021/04/30 10:57:08;;;;;;;27.17;15.27;;;9.00;99.90;;;;;;4947469;28;20031;-76
2021/04/30 10:59:40;;;;;;;24.92;15.02;;;9.00;99.90;;;;;;4952493;28;20052;-76
2021/04/30 11:02:38;;;;;;;28.55;14.30;;;9.00;99.90;;;;;;4955603;28;20046;-76
2021/04/30 11:05:06;;;;;;;26.65;15.38;;;9.20;99.90;;;;;;4959180;28;20053;-77
2021/04/30 11:07:35;;;;;;;24.35;14.88;;;9.10;99.90;;;;;;4956768;28;20091;-79
2021/04/30 11:10:30;;;;;;;24.85;14.32;;;9.10;99.90;;;;;;4946959;28;20042;-78
2021/04/30 11:13:04;;;;;;;22.90;14.30;;;9.10;99.90;;;;;;4948333;28;20103;-78
2021/04/30 11:15:32;;;;;;;29.20;15.13;;;9.30;99.90;;;;;;4956105;28;20035;-77
2021/04/30 11:18:02;;;;;;;21.13;13.55;;;9.40;99.90;;;;;;4955257;28;20024;-78
2021/04/30 11:20:34;;;;;;;21.40;13.05;;;9.50;99.90;;;;;;4953066;28;20023;-77
2021/04/30 11:23:18;;;;;;;21.70;13.27;;;9.90;99.90;;;;;;4955571;28;20069;-75
2021/04/30 11:26:05;;;;;;;22.98;12.75;;;9.90;99.90;;;;;;5023002;28;20030;-77
2021/04/30 11:28:33;;;;;;;23.85;12.77;;;9.70;99.90;;;;;;4996881;28;20021;-78
2021/04/30 11:31:19;;;;;;;21.35;12.10;;;9.60;99.90;;;;;;5000401;28;20463;-77
2021/04/30 11:34:05;;;;;;;25.83;11.55;;;9.70;99.90;;;;;;4956081;28;20041;-77
2021/04/30 11:36:31;;;;;;;17.52;9.50;;;9.80;99.90;;;;;;5014544;28;20038;-78
2021/04/30 11:39:17;;;;;;;18.17;9.85;;;9.70;99.90;;;;;;4948441;28;20569;-76
2021/04/30 11:41:44;;;;;;;16.75;9.25;;;9.70;99.90;;;;;;5027929;28;20028;-76
2021/04/30 11:44:15;;;;;;;15.48;9.27;;;9.70;99.90;;;;;;4962182;28;20015;-78
2021/04/30 11:46:41;;;;;;;18.57;9.70;;;9.60;99.90;;;;;;4959891;28;20050;-79
2021/04/30 11:49:07;;;;;;;23.05;9.82;;;9.70;99.90;;;;;;4946473;28;20027;-77
2021/04/30 11:51:43;;;;;;;14.18;9.07;;;9.60;99.90;;;;;;4961097;28;20061;-78
2021/04/30 11:54:09;;;;;;;14.48;8.70;;;9.70;99.90;;;;;;4956673;28;20023;-77
2021/04/30 11:56:37;;;;;;;10.98;6.97;;;9.70;99.90;;;;;;4953949;28;20030;-78
2021/04/30 11:59:03;;;;;;;9.82;6.70;;;9.70;99.90;;;;;;4956026;28;20019;-78
2021/04/30 12:01:30;;;;;;;7.65;4.90;;;10.10;99.90;;;;;;4997687;28;20166;-77
2021/04/30 12:03:56;;;;;;;5.97;5.28;;;10.00;99.90;;;;;;4997949;28;20047;-77
2021/04/30 12:06:27;;;;;;;6.05;4.85;;;9.80;99.90;;;;;;4950064;28;20035;-77
2021/04/30 12:08:55;;;;;;;10.63;5.43;;;9.70;99.90;;;;;;4947858;28;20635;-77
2021/04/30 12:11:30;;;;;;;8.95;5.40;;;9.90;99.90;;;;;;4947233;28;20372;-76
2021/04/30 12:14:02;;;;;;;5.78;4.65;;;10.00;99.90;;;;;;4944906;28;20039;-75
2021/04/30 12:16:28;;;;;;;7.63;5.72;;;9.90;99.90;;;;;;4949300;28;20039;-77
2021/04/30 12:18:57;;;;;;;10.70;7.07;;;9.90;99.90;;;;;;4955295;28;20027;-78
2021/04/30 12:21:28;;;;;;;9.70;5.88;;;9.90;99.90;;;;;;4956401;28;20019;-78
2021/04/30 12:23:55;;;;;;;6.72;4.65;;;9.90;99.90;;;;;;4947538;28;20051;-77
2021/04/30 12:26:31;;;;;;;5.43;4.00;;;10.10;99.90;;;;;;4958372;28;20567;-78
2021/04/30 12:28:58;;;;;;;7.90;4.28;;;10.30;99.90;;;;;;5026625;28;20770;-77
2021/04/30 12:31:25;;;;;;;5.78;4.28;;;10.50;99.90;;;;;;5023868;28;20032;-77
2021/04/30 12:33:52;;;;;;;6.32;4.35;;;10.50;99.90;;;;;;4963836;28;20022;-76
2021/04/30 12:36:30;;;;;;;8.48;4.55;;;10.70;99.90;;;;;;5021727;28;20066;-79
2021/04/30 12:39:02;;;;;;;7.50;4.38;;;11.00;99.90;;;;;;4949503;28;20031;-79
2021/04/30 12:41:49;;;;;;;7.53;4.78;;;10.50;99.90;;;;;;4953499;28;20024;-79
2021/04/30 12:44:16;;;;;;;10.80;4.95;;;10.40;99.90;;;;;;4956430;28;20039;-82
2021/04/30 12:46:42;;;;;;;11.70;5.18;;;10.10;99.90;;;;;;5026041;28;20038;-79